Time;durP1;ratioP1;P1;durP2;ratioP2;P2;SDS_P1;SDS_P2;PMS_P1;PMS_P2;Temp;Humidity;BMP_temperature;BMP_pressure;BME280_temperature;BME280_humidity;BME280_pressure;Samples;Min_cycle;Max_cycle;Signal;HPM_P1;HPM_P2
2022/09/01 00:02:26;;;;;;;10.77;6.60;;;;;;;;;;7374377;19;20309;-78
2022/09/01 00:04:55;;;;;;;9.60;6.20;;;;;;;;;;7369055;19;20017;-79
2022/09/01 00:07:20;;;;;;;10.60;6.22;;;;;;;;;;7383471;19;20006;-78
2022/09/01 00:09:45;;;;;;;10.27;6.10;;;;;;;;;;7377728;19;20013;-79
2022/09/01 00:12:11;;;;;;;10.77;6.18;;;;;;;;;;7377819;19;20123;-78
2022/09/01 00:14:37;;;;;;;10.67;6.17;;;;;;;;;;7375267;19;20007;-78
2022/09/01 00:17:04;;;;;;;10.18;5.90;;;;;;;;;;7380074;19;20529;-78
2022/09/01 00:19:31;;;;;;;10.25;6.30;;;;;;;;;;7371362;19;20470;-78
2022/09/01 00:21:56;;;;;;;9.73;5.90;;;;;;;;;;7381117;19;20035;-79
2022/09/01 00:24:22;;;;;;;10.47;5.73;;;;;;;;;;7380767;19;20086;-78
2022/09/01 00:26:47;;;;;;;11.73;6.47;;;;;;;;;;7376581;19;20287;-78
2022/09/01 00:29:12;;;;;;;9.13;5.88;;;;;;;;;;7385426;19;20003;-78
2022/09/01 00:31:38;;;;;;;13.18;5.60;;;;;;;;;;7378700;19;20007;-79
2022/09/01 00:34:03;;;;;;;13.65;5.53;;;;;;;;;;7358101;19;20044;-78
2022/09/01 00:36:28;;;;;;;11.35;5.82;;;;;;;;;;7370408;19;20645;-78
2022/09/01 00:38:54;;;;;;;11.47;5.93;;;;;;;;;;7375998;19;20632;-79
2022/09/01 00:41:20;;;;;;;9.70;5.60;;;;;;;;;;7374110;19;20717;-78
2022/09/01 00:43:47;;;;;;;9.40;5.13;;;;;;;;;;7380434;19;20010;-78
2022/09/01 00:46:17;;;;;;;11.75;6.47;;;;;;;;;;7372231;19;20038;-79
2022/09/01 00:48:42;;;;;;;8.35;5.65;;;;;;;;;;7343311;19;20002;-78
2022/09/01 00:51:08;;;;;;;8.88;5.13;;;;;;;;;;7381464;19;20496;-78
2022/09/01 00:53:34;;;;;;;10.02;5.07;;;;;;;;;;7371010;19;20031;-78
2022/09/01 00:56:00;;;;;;;8.27;4.93;;;;;;;;;;7374362;19;20010;-78
2022/09/01 00:58:25;;;;;;;10.25;4.95;;;;;;;;;;7367612;19;20006;-79
2022/09/01 01:00:51;;;;;;;13.93;4.85;;;;;;;;;;7375235;19;20006;-78
2022/09/01 01:03:17;;;;;;;11.40;4.97;;;;;;;;;;7350585;19;21632;-79
2022/09/01 01:05:52;;;;;;;13.67;5.20;;;;;;;;;;7370161;19;20142;-78
2022/09/01 01:08:18;;;;;;;10.23;5.10;;;;;;;;;;7367474;19;20790;-79
2022/09/01 01:10:43;;;;;;;7.75;4.35;;;;;;;;;;7366552;19;20058;-78
2022/09/01 01:13:19;;;;;;;8.77;5.05;;;;;;;;;;7371439;19;20064;-79
2022/09/01 01:15:45;;;;;;;8.80;5.05;;;;;;;;;;7377045;19;20321;-78
2022/09/01 01:18:11;;;;;;;8.73;4.85;;;;;;;;;;7382055;19;20021;-78
2022/09/01 01:23:18;;;;;;;6.63;4.68;;;;;;;;;;7370474;19;20015;-78
2022/09/01 01:25:43;;;;;;;9.38;4.53;;;;;;;;;;7377355;19;20003;-79
2022/09/01 01:28:11;;;;;;;8.88;4.68;;;;;;;;;;7376625;19;20014;-78
2022/09/01 01:30:38;;;;;;;11.48;4.68;;;;;;;;;;7377478;19;20014;-79
2022/09/01 01:33:04;;;;;;;6.25;4.20;;;;;;;;;;7368485;19;20014;-79
2022/09/01 01:35:30;;;;;;;8.27;4.10;;;;;;;;;;7378087;19;20497;-78
2022/09/01 01:37:55;;;;;;;6.90;3.75;;;;;;;;;;7369534;19;20021;-79
2022/09/01 01:40:21;;;;;;;8.23;4.45;;;;;;;;;;7376195;19;20022;-79
2022/09/01 01:42:48;;;;;;;7.57;4.28;;;;;;;;;;7379735;19;20070;-78
2022/09/01 01:45:18;;;;;;;8.75;4.07;;;;;;;;;;7376480;19;20413;-78
2022/09/01 01:47:51;;;;;;;7.60;4.65;;;;;;;;;;7371456;19;20002;-78
2022/09/01 01:50:17;;;;;;;7.45;3.90;;;;;;;;;;7378333;19;20077;-78
2022/09/01 01:52:42;;;;;;;9.35;4.25;;;;;;;;;;7371946;19;20040;-79
2022/09/01 01:55:11;;;;;;;9.80;3.90;;;;;;;;;;7375920;19;20070;-78
2022/09/01 01:57:38;;;;;;;8.32;4.43;;;;;;;;;;7372861;19;20266;-79
2022/09/01 02:00:04;;;;;;;7.25;4.03;;;;;;;;;;7370191;19;20022;-79
2022/09/01 02:02:30;;;;;;;9.43;4.55;;;;;;;;;;7371399;19;20010;-78
2022/09/01 02:04:55;;;;;;;8.15;4.32;;;;;;;;;;7377989;19;20493;-79
2022/09/01 02:07:20;;;;;;;7.30;4.50;;;;;;;;;;7375949;19;20014;-79
2022/09/01 02:09:47;;;;;;;9.63;3.95;;;;;;;;;;7372030;19;20002;-79
2022/09/01 02:12:12;;;;;;;8.35;4.53;;;;;;;;;;7380499;19;20066;-78
2022/09/01 02:14:37;;;;;;;7.75;4.28;;;;;;;;;;7361759;19;20015;-78
2022/09/01 02:17:05;;;;;;;9.32;4.05;;;;;;;;;;7368049;19;20039;-78
2022/09/01 02:19:31;;;;;;;9.15;4.47;;;;;;;;;;7373687;19;20010;-78
2022/09/01 02:21:58;;;;;;;8.45;4.20;;;;;;;;;;7374021;19;20473;-79
2022/09/01 02:24:25;;;;;;;8.48;4.15;;;;;;;;;;7372663;19;20300;-78
2022/09/01 02:26:50;;;;;;;8.75;4.25;;;;;;;;;;7375694;19;20010;-79
2022/09/01 02:29:17;;;;;;;8.27;4.18;;;;;;;;;;7372005;19;20473;-78
2022/09/01 02:31:44;;;;;;;6.82;4.55;;;;;;;;;;7374357;19;20353;-78
2022/09/01 02:34:12;;;;;;;6.93;3.92;;;;;;;;;;7369369;19;20306;-78
2022/09/01 02:36:43;;;;;;;6.75;4.18;;;;;;;;;;7383616;19;19998;-78
2022/09/01 02:39:08;;;;;;;9.23;4.20;;;;;;;;;;7389196;19;20529;-79
2022/09/01 02:41:33;;;;;;;10.10;4.60;;;;;;;;;;7388179;19;20036;-78
2022/09/01 02:44:01;;;;;;;10.23;4.43;;;;;;;;;;7382477;19;20011;-79
2022/09/01 02:46:26;;;;;;;9.85;4.07;;;;;;;;;;7379801;19;20267;-79
2022/09/01 02:48:52;;;;;;;9.40;4.53;;;;;;;;;;7377683;19;20006;-79
2022/09/01 02:51:18;;;;;;;8.90;4.55;;;;;;;;;;7385254;19;20483;-79
2022/09/01 02:53:47;;;;;;;8.95;4.65;;;;;;;;;;7385114;19;20015;-78
2022/09/01 02:56:12;;;;;;;8.57;4.55;;;;;;;;;;7368304;19;20010;-79
2022/09/01 02:58:47;;;;;;;9.55;4.72;;;;;;;;;;7383886;19;21452;-79
2022/09/01 03:01:20;;;;;;;10.93;5.28;;;;;;;;;;7383359;19;20010;-79
2022/09/01 03:03:46;;;;;;;7.65;4.70;;;;;;;;;;7368195;19;20015;-78
2022/09/01 03:06:11;;;;;;;9.15;4.97;;;;;;;;;;7381673;19;20014;-78
2022/09/01 03:08:38;;;;;;;10.43;5.05;;;;;;;;;;7380112;19;20045;-78
2022/09/01 03:11:05;;;;;;;8.60;4.80;;;;;;;;;;7383137;19;20010;-79
2022/09/01 03:13:31;;;;;;;11.43;5.38;;;;;;;;;;7373314;19;20015;-79
2022/09/01 03:15:56;;;;;;;8.87;4.63;;;;;;;;;;7372107;19;20014;-80
2022/09/01 03:18:21;;;;;;;9.77;4.60;;;;;;;;;;7364821;19;20775;-79
2022/09/01 03:20:48;;;;;;;10.23;4.60;;;;;;;;;;7383811;19;20014;-79
2022/09/01 03:23:14;;;;;;;8.57;4.82;;;;;;;;;;7385043;19;20262;-80
2022/09/01 03:25:41;;;;;;;7.90;5.10;;;;;;;;;;7383125;19;20021;-80
2022/09/01 03:28:07;;;;;;;8.50;4.60;;;;;;;;;;7376960;19;20010;-80
2022/09/01 03:30:34;;;;;;;7.53;4.57;;;;;;;;;;7383667;19;21565;-80
2022/09/01 03:33:00;;;;;;;8.77;4.55;;;;;;;;;;7377971;19;20027;-79
2022/09/01 03:35:27;;;;;;;7.55;4.60;;;;;;;;;;7382352;19;20002;-79
2022/09/01 03:37:53;;;;;;;6.70;4.80;;;;;;;;;;7387051;19;20025;-78
2022/09/01 03:40:19;;;;;;;7.88;4.68;;;;;;;;;;7381009;19;20544;-80
2022/09/01 03:42:44;;;;;;;8.85;4.28;;;;;;;;;;7385842;19;20015;-78
2022/09/01 03:45:11;;;;;;;7.68;4.43;;;;;;;;;;7385415;19;20035;-79
2022/09/01 03:47:39;;;;;;;6.75;4.90;;;;;;;;;;7365723;19;20023;-79
2022/09/01 03:50:04;;;;;;;10.85;4.63;;;;;;;;;;7383961;19;20010;-79
2022/09/01 03:52:30;;;;;;;7.30;4.47;;;;;;;;;;7381607;19;20036;-79
2022/09/01 03:54:58;;;;;;;6.37;4.57;;;;;;;;;;7370256;19;20015;-79
2022/09/01 03:57:25;;;;;;;7.22;4.68;;;;;;;;;;7372484;19;20771;-79
2022/09/01 03:59:50;;;;;;;8.45;4.50;;;;;;;;;;7383980;19;20014;-78
2022/09/01 04:02:16;;;;;;;7.20;4.60;;;;;;;;;;7371597;19;20557;-80
2022/09/01 04:04:41;;;;;;;10.07;4.40;;;;;;;;;;7372265;19;20022;-79
2022/09/01 04:07:06;;;;;;;7.20;4.77;;;;;;;;;;7375670;19;20470;-79
2022/09/01 04:09:32;;;;;;;8.90;5.03;;;;;;;;;;7368254;19;20267;-79
2022/09/01 04:11:57;;;;;;;7.35;4.88;;;;;;;;;;7375024;19;20385;-78
2022/09/01 04:14:24;;;;;;;8.65;4.85;;;;;;;;;;7378561;19;20030;-79
2022/09/01 04:19:35;;;;;;;9.20;4.38;;;;;;;;;;7379984;19;20027;-79
2022/09/01 04:22:01;;;;;;;6.63;4.57;;;;;;;;;;7368041;19;20031;-78
2022/09/01 04:24:27;;;;;;;7.65;4.47;;;;;;;;;;7370635;19;20015;-78
2022/09/01 04:26:53;;;;;;;7.78;4.40;;;;;;;;;;7376231;19;20010;-78
2022/09/01 04:29:26;;;;;;;8.32;4.53;;;;;;;;;;7374129;19;20014;-79
2022/09/01 04:31:52;;;;;;;7.60;4.20;;;;;;;;;;7360525;19;20025;-78
2022/09/01 04:34:18;;;;;;;8.55;4.05;;;;;;;;;;7377733;19;20599;-78
2022/09/01 04:36:44;;;;;;;5.97;4.30;;;;;;;;;;7372684;19;20039;-79
2022/09/01 04:39:12;;;;;;;7.35;4.28;;;;;;;;;;7374937;19;20014;-79
2022/09/01 04:41:39;;;;;;;7.00;4.45;;;;;;;;;;7372179;19;20010;-78
2022/09/01 04:44:05;;;;;;;6.65;4.63;;;;;;;;;;7373513;19;20054;-78
2022/09/01 04:46:34;;;;;;;8.10;4.85;;;;;;;;;;7368064;19;20011;-79
2022/09/01 04:49:02;;;;;;;7.10;4.68;;;;;;;;;;7372026;19;20010;-78
2022/09/01 04:51:27;;;;;;;6.45;4.40;;;;;;;;;;7373416;19;20030;-79
2022/09/01 04:53:53;;;;;;;10.73;3.97;;;;;;;;;;7367738;19;20052;-77
2022/09/01 04:56:21;;;;;;;5.65;4.32;;;;;;;;;;7370491;19;20271;-78
2022/09/01 04:58:47;;;;;;;6.68;4.25;;;;;;;;;;7375681;19;20014;-78
2022/09/01 05:01:13;;;;;;;6.75;4.20;;;;;;;;;;7379174;19;20018;-78
2022/09/01 05:03:38;;;;;;;11.23;4.68;;;;;;;;;;7369502;19;21438;-78
2022/09/01 05:06:04;;;;;;;8.70;4.00;;;;;;;;;;7379121;19;20093;-77
2022/09/01 05:08:34;;;;;;;8.20;4.50;;;;;;;;;;7355378;19;20271;-77
2022/09/01 05:11:06;;;;;;;7.43;4.10;;;;;;;;;;7367265;19;20006;-78
2022/09/01 05:13:31;;;;;;;6.68;4.35;;;;;;;;;;7365735;19;20015;-77
2022/09/01 05:16:01;;;;;;;6.22;3.97;;;;;;;;;;7363828;19;20031;-78
2022/09/01 05:18:27;;;;;;;7.43;4.40;;;;;;;;;;7364870;19;20034;-78
2022/09/01 05:20:52;;;;;;;7.75;4.28;;;;;;;;;;7359932;19;20011;-78
2022/09/01 05:23:18;;;;;;;6.80;4.15;;;;;;;;;;7367364;19;20019;-78
2022/09/01 05:25:47;;;;;;;8.27;4.45;;;;;;;;;;7356996;19;20589;-77
2022/09/01 05:28:13;;;;;;;8.90;4.50;;;;;;;;;;7365335;19;20095;-77
2022/09/01 05:30:39;;;;;;;6.43;4.20;;;;;;;;;;7343203;19;20289;-78
2022/09/01 05:33:11;;;;;;;7.88;4.60;;;;;;;;;;7358149;19;20017;-78
2022/09/01 05:35:43;;;;;;;8.18;4.05;;;;;;;;;;7356142;19;20038;-78
2022/09/01 05:38:11;;;;;;;6.38;4.35;;;;;;;;;;7366170;19;20703;-78
2022/09/01 05:40:39;;;;;;;6.90;4.18;;;;;;;;;;7352702;19;20014;-78
2022/09/01 05:43:05;;;;;;;10.00;4.57;;;;;;;;;;7353007;19;20015;-78
2022/09/01 05:45:30;;;;;;;7.78;3.95;;;;;;;;;;7371111;19;20375;-78
2022/09/01 05:47:57;;;;;;;8.57;4.80;;;;;;;;;;7329900;19;20360;-78
2022/09/01 05:50:22;;;;;;;6.47;4.38;;;;;;;;;;7341506;19;20022;-78
2022/09/01 05:52:47;;;;;;;6.73;4.53;;;;;;;;;;7314913;19;20003;-78
2022/09/01 05:55:14;;;;;;;9.02;4.50;;;;;;;;;;7331619;19;20278;-79
2022/09/01 05:57:39;;;;;;;9.13;4.90;;;;;;;;;;7366160;19;20003;-79
2022/09/01 06:00:11;;;;;;;7.85;4.75;;;;;;;;;;7368747;19;20014;-79
2022/09/01 06:02:36;;;;;;;7.88;4.85;;;;;;;;;;7350121;19;20339;-79
2022/09/01 06:05:02;;;;;;;9.20;4.80;;;;;;;;;;7354240;19;19999;-79
2022/09/01 06:07:27;;;;;;;8.75;4.90;;;;;;;;;;7369372;19;20011;-79
2022/09/01 06:09:52;;;;;;;7.70;4.68;;;;;;;;;;7366948;19;20003;-79
2022/09/01 06:12:19;;;;;;;8.45;4.70;;;;;;;;;;7350655;19;20038;-80
2022/09/01 06:14:47;;;;;;;7.70;4.55;;;;;;;;;;7364573;19;20011;-80
2022/09/01 06:17:15;;;;;;;9.93;4.95;;;;;;;;;;7363766;19;20002;-80
2022/09/01 06:19:41;;;;;;;8.25;4.30;;;;;;;;;;7355694;19;20006;-80
2022/09/01 06:22:09;;;;;;;6.75;4.30;;;;;;;;;;7363000;19;20007;-80
2022/09/01 06:24:35;;;;;;;10.15;4.28;;;;;;;;;;7359209;19;20021;-79
2022/09/01 06:27:00;;;;;;;7.53;3.75;;;;;;;;;;7365887;19;20105;-79
2022/09/01 06:29:26;;;;;;;6.10;3.58;;;;;;;;;;7366306;19;20483;-79
2022/09/01 06:31:51;;;;;;;8.27;4.03;;;;;;;;;;7358054;19;20029;-78
2022/09/01 06:34:17;;;;;;;7.82;4.00;;;;;;;;;;7366970;19;20247;-79
2022/09/01 06:36:42;;;;;;;10.27;4.47;;;;;;;;;;7363405;19;20007;-79
2022/09/01 06:39:08;;;;;;;7.15;3.50;;;;;;;;;;7368705;19;20030;-79
2022/09/01 06:41:37;;;;;;;8.27;3.97;;;;;;;;;;7354832;19;20019;-79
2022/09/01 06:44:02;;;;;;;9.32;3.65;;;;;;;;;;7355103;19;20471;-79
2022/09/01 06:46:28;;;;;;;8.55;4.03;;;;;;;;;;7362570;19;20019;-78
2022/09/01 06:48:55;;;;;;;6.28;3.60;;;;;;;;;;7367079;19;20006;-79
2022/09/01 06:51:21;;;;;;;8.32;3.20;;;;;;;;;;7367031;19;20014;-79
2022/09/01 06:53:50;;;;;;;8.70;3.63;;;;;;;;;;7367183;19;20003;-79
2022/09/01 06:56:17;;;;;;;9.68;3.80;;;;;;;;;;7360252;19;20025;-78
2022/09/01 06:58:46;;;;;;;6.65;3.17;;;;;;;;;;7363352;19;20043;-78
2022/09/01 07:01:14;;;;;;;7.88;3.13;;;;;;;;;;7362755;19;20562;-79
2022/09/01 07:03:44;;;;;;;7.00;3.72;;;;;;;;;;7346007;19;20015;-79
2022/09/01 07:06:09;;;;;;;7.22;3.20;;;;;;;;;;7360021;19;20015;-78
2022/09/01 07:08:38;;;;;;;6.03;3.28;;;;;;;;;;7357817;19;20014;-79
2022/09/01 07:11:05;;;;;;;9.98;3.65;;;;;;;;;;7363066;19;20068;-79
2022/09/01 07:13:32;;;;;;;6.53;3.20;;;;;;;;;;7366025;19;20029;-78
2022/09/01 07:15:58;;;;;;;6.80;3.40;;;;;;;;;;7363027;19;20025;-79
2022/09/01 07:18:25;;;;;;;7.43;3.30;;;;;;;;;;7361343;19;19999;-79
2022/09/01 07:20:51;;;;;;;7.50;3.33;;;;;;;;;;7363078;19;20090;-78
2022/09/01 07:23:16;;;;;;;7.70;3.45;;;;;;;;;;7363958;19;20025;-78
2022/09/01 07:25:43;;;;;;;6.85;2.88;;;;;;;;;;7353773;19;20007;-79
2022/09/01 07:28:09;;;;;;;7.30;3.08;;;;;;;;;;7369929;19;20041;-79
2022/09/01 07:30:39;;;;;;;6.82;3.17;;;;;;;;;;7362221;19;20019;-79
2022/09/01 07:33:07;;;;;;;10.13;3.55;;;;;;;;;;7358620;19;20009;-79
2022/09/01 07:35:36;;;;;;;9.25;3.28;;;;;;;;;;7369911;19;20006;-79
2022/09/01 07:38:03;;;;;;;7.38;3.10;;;;;;;;;;7357316;19;20034;-79
2022/09/01 07:40:28;;;;;;;6.95;3.30;;;;;;;;;;7370473;19;20010;-79
2022/09/01 07:42:54;;;;;;;7.05;2.80;;;;;;;;;;7370956;19;19999;-79
2022/09/01 07:45:19;;;;;;;6.38;2.92;;;;;;;;;;7372445;19;20019;-79
2022/09/01 07:47:44;;;;;;;5.28;2.90;;;;;;;;;;7358996;19;20006;-79
2022/09/01 07:50:11;;;;;;;10.63;3.23;;;;;;;;;;7369645;19;20021;-79
2022/09/01 07:52:42;;;;;;;6.90;3.10;;;;;;;;;;7376638;19;20263;-80
2022/09/01 07:55:16;;;;;;;5.50;3.30;;;;;;;;;;7379793;19;20023;-80
2022/09/01 07:57:42;;;;;;;6.40;3.13;;;;;;;;;;7367010;19;20007;-79
2022/09/01 08:00:08;;;;;;;8.68;2.83;;;;;;;;;;7371108;19;20648;-80
2022/09/01 08:02:35;;;;;;;7.18;3.28;;;;;;;;;;7368230;19;20534;-79
2022/09/01 08:05:00;;;;;;;6.35;3.10;;;;;;;;;;7369849;19;20416;-79
2022/09/01 08:07:25;;;;;;;7.10;3.30;;;;;;;;;;7365288;19;20002;-79
2022/09/01 08:09:51;;;;;;;5.83;3.50;;;;;;;;;;7357811;19;20097;-79
2022/09/01 08:12:16;;;;;;;10.27;3.70;;;;;;;;;;7355758;19;20270;-79
2022/09/01 08:14:41;;;;;;;7.10;3.78;;;;;;;;;;7363427;19;20331;-79
2022/09/01 08:17:06;;;;;;;8.23;3.28;;;;;;;;;;7357473;19;20002;-79
2022/09/01 08:19:32;;;;;;;6.65;3.08;;;;;;;;;;7363376;19;20371;-79
2022/09/01 08:21:57;;;;;;;6.10;3.43;;;;;;;;;;7376353;19;20018;-78
2022/09/01 08:24:22;;;;;;;12.07;4.30;;;;;;;;;;7379203;19;20028;-79
2022/09/01 08:26:47;;;;;;;7.57;4.10;;;;;;;;;;7363777;19;20288;-78
2022/09/01 08:29:12;;;;;;;6.78;3.38;;;;;;;;;;7369218;19;20014;-79
2022/09/01 08:31:38;;;;;;;11.63;3.90;;;;;;;;;;7366263;19;20394;-80
2022/09/01 08:34:04;;;;;;;8.87;4.20;;;;;;;;;;7365168;19;20021;-80
2022/09/01 08:36:30;;;;;;;6.57;3.35;;;;;;;;;;7359938;19;20471;-81
2022/09/01 08:38:55;;;;;;;7.07;3.72;;;;;;;;;;7377431;19;20025;-79
2022/09/01 08:41:35;;;;;;;9.60;3.67;;;;;;;;;;7368446;19;21542;-81
2022/09/01 08:44:06;;;;;;;7.65;3.80;;;;;;;;;;7366889;19;20270;-80
2022/09/01 08:46:34;;;;;;;5.93;3.20;;;;;;;;;;7353658;19;22153;-81
2022/09/01 08:49:02;;;;;;;8.13;3.58;;;;;;;;;;7353008;19;20466;-80
2022/09/01 08:51:33;;;;;;;10.45;3.60;;;;;;;;;;7362951;19;20029;-80
2022/09/01 08:54:02;;;;;;;9.27;3.63;;;;;;;;;;7377215;19;20479;-83
2022/09/01 08:56:27;;;;;;;5.85;3.30;;;;;;;;;;7365318;19;20015;-81
2022/09/01 08:58:52;;;;;;;8.37;3.87;;;;;;;;;;7379529;19;20413;-82
2022/09/01 09:01:33;;;;;;;5.72;3.53;;;;;;;;;;7366311;19;20260;-82
2022/09/01 09:04:10;;;;;;;5.97;3.20;;;;;;;;;;7351240;19;20106;-81
2022/09/01 09:06:54;;;;;;;9.80;3.58;;;;;;;;;;7372840;19;20113;-83
2022/09/01 09:09:19;;;;;;;6.43;3.72;;;;;;;;;;7362164;19;20498;-81
2022/09/01 09:11:50;;;;;;;7.35;3.30;;;;;;;;;;7359093;19;20084;-82
2022/09/01 09:14:18;;;;;;;7.45;3.30;;;;;;;;;;7361559;19;20462;-82
2022/09/01 09:16:47;;;;;;;11.60;3.10;;;;;;;;;;7359040;19;20010;-81
2022/09/01 09:19:33;;;;;;;8.98;2.85;;;;;;;;;;7375409;19;20033;-80
2022/09/01 09:21:59;;;;;;;5.57;2.80;;;;;;;;;;7375975;19;20011;-81
2022/09/01 09:24:54;;;;;;;7.65;3.05;;;;;;;;;;7365675;19;20007;-82
2022/09/01 09:27:23;;;;;;;5.57;2.67;;;;;;;;;;7370066;19;20006;-82
2022/09/01 09:29:53;;;;;;;8.00;2.88;;;;;;;;;;7363334;19;20006;-80
2022/09/01 09:32:19;;;;;;;6.75;2.50;;;;;;;;;;7364542;19;20437;-82
2022/09/01 09:34:44;;;;;;;9.80;3.38;;;;;;;;;;7362206;19;20042;-86
2022/09/01 09:37:23;;;;;;;6.33;2.87;;;;;;;;;;7364684;19;20331;-82
2022/09/01 09:40:04;;;;;;;6.30;2.92;;;;;;;;;;7363930;19;20773;-82
2022/09/01 09:42:30;;;;;;;5.28;2.50;;;;;;;;;;7366896;19;20006;-82
2022/09/01 09:44:55;;;;;;;8.38;2.92;;;;;;;;;;7368638;19;20039;-82
2022/09/01 09:47:38;;;;;;;11.00;3.05;;;;;;;;;;7357710;19;20018;-80
2022/09/01 09:50:18;;;;;;;6.80;2.80;;;;;;;;;;7361937;19;20017;-82
2022/09/01 09:52:45;;;;;;;7.45;3.00;;;;;;;;;;7363353;19;20065;-81
2022/09/01 09:55:17;;;;;;;5.40;2.85;;;;;;;;;;7355651;19;20482;-80
2022/09/01 09:57:43;;;;;;;5.88;3.17;;;;;;;;;;7364445;19;20017;-81
2022/09/01 10:00:23;;;;;;;9.02;2.60;;;;;;;;;;7354461;19;20517;-80
2022/09/01 10:03:10;;;;;;;6.47;2.72;;;;;;;;;;7355773;19;20817;-81
2022/09/01 10:05:35;;;;;;;8.48;4.03;;;;;;;;;;7360358;19;20018;-81
2022/09/01 10:08:01;;;;;;;6.95;3.28;;;;;;;;;;7360317;19;20288;-81
2022/09/01 10:10:35;;;;;;;7.05;2.75;;;;;;;;;;7361753;19;20929;-82
2022/09/01 10:13:00;;;;;;;7.78;3.45;;;;;;;;;;7359166;19;20038;-82
2022/09/01 10:15:27;;;;;;;6.60;2.90;;;;;;;;;;7368252;19;20040;-81
2022/09/01 10:17:54;;;;;;;6.40;2.95;;;;;;;;;;7355241;19;20026;-81
2022/09/01 10:20:22;;;;;;;7.38;3.10;;;;;;;;;;7351600;19;20090;-82
2022/09/01 10:22:48;;;;;;;6.95;2.85;;;;;;;;;;7358885;19;20014;-81
2022/09/01 10:25:34;;;;;;;6.10;3.05;;;;;;;;;;7357121;19;20010;-81
2022/09/01 10:28:11;;;;;;;8.82;2.95;;;;;;;;;;7356536;19;20014;-81
2022/09/01 10:30:41;;;;;;;6.28;2.90;;;;;;;;;;7365422;19;20436;-82
2022/09/01 10:33:06;;;;;;;5.43;2.63;;;;;;;;;;7353682;19;20018;-82
2022/09/01 10:35:33;;;;;;;7.03;2.70;;;;;;;;;;7358905;19;20447;-82
2022/09/01 10:38:02;;;;;;;5.82;2.38;;;;;;;;;;7356914;19;20006;-80
2022/09/01 10:40:27;;;;;;;5.30;2.60;;;;;;;;;;7358989;19;20409;-81
2022/09/01 10:42:57;;;;;;;6.75;2.65;;;;;;;;;;7361739;19;20426;-79
2022/09/01 10:45:30;;;;;;;6.15;3.38;;;;;;;;;;7351223;19;20015;-79
2022/09/01 10:47:56;;;;;;;7.43;3.13;;;;;;;;;;7355004;19;20018;-78
2022/09/01 10:50:24;;;;;;;6.80;3.13;;;;;;;;;;7358060;19;20013;-80
2022/09/01 10:52:54;;;;;;;5.32;2.70;;;;;;;;;;7360945;19;20823;-80
2022/09/01 10:55:25;;;;;;;7.30;2.83;;;;;;;;;;7354205;19;20474;-79
2022/09/01 10:57:53;;;;;;;5.20;3.03;;;;;;;;;;7356399;19;20353;-78
2022/09/01 11:00:18;;;;;;;9.13;3.03;;;;;;;;;;7364639;19;20044;-80
2022/09/01 11:03:14;;;;;;;8.25;3.22;;;;;;;;;;7364529;19;20458;-78
2022/09/01 11:05:54;;;;;;;5.60;3.10;;;;;;;;;;7340629;19;20371;-80
2022/09/01 11:08:28;;;;;;;6.13;3.42;;;;;;;;;;7351212;19;20023;-80
2022/09/01 11:11:12;;;;;;;6.75;2.80;;;;;;;;;;7357201;19;20014;-80
2022/09/01 11:13:44;;;;;;;6.07;3.00;;;;;;;;;;7353186;19;20002;-80
2022/09/01 11:16:28;;;;;;;7.43;2.85;;;;;;;;;;7368680;19;20101;-80
2022/09/01 11:18:54;;;;;;;6.60;2.95;;;;;;;;;;7349543;19;20006;-81
2022/09/01 11:21:24;;;;;;;8.27;3.08;;;;;;;;;;7335577;19;20023;-80
2022/09/01 11:23:49;;;;;;;5.93;2.85;;;;;;;;;;7361784;19;20391;-80
2022/09/01 11:26:33;;;;;;;5.67;3.03;;;;;;;;;;7358780;19;20408;-80
2022/09/01 11:28:59;;;;;;;8.50;3.20;;;;;;;;;;7364912;19;20618;-81
2022/09/01 11:31:28;;;;;;;6.82;2.85;;;;;;;;;;7364617;19;20111;-80
2022/09/01 11:34:11;;;;;;;6.45;2.97;;;;;;;;;;7359177;19;20010;-83
2022/09/01 11:36:46;;;;;;;7.32;3.25;;;;;;;;;;7357095;19;20006;-80
2022/09/01 11:39:17;;;;;;;5.53;2.83;;;;;;;;;;7369214;19;20037;-80
2022/09/01 11:41:50;;;;;;;6.20;3.00;;;;;;;;;;7353256;19;20577;-79
2022/09/01 11:44:16;;;;;;;;;;;;;;;;;;7363154;19;20014;-80
2022/09/01 11:46:42;;;;;;;9.15;3.17;;;;;;;;;;7376274;19;19915;-80
2022/09/01 11:49:17;;;;;;;6.30;3.00;;;;;;;;;;7376513;19;20010;-80
2022/09/01 11:51:46;;;;;;;6.53;2.97;;;;;;;;;;7374884;19;20082;-80
2022/09/01 11:54:12;;;;;;;5.70;2.70;;;;;;;;;;7368059;19;20012;-80
2022/09/01 11:56:37;;;;;;;5.43;2.67;;;;;;;;;;7361400;19;20699;-80
2022/09/01 11:59:02;;;;;;;4.97;2.30;;;;;;;;;;7355093;19;20071;-80
2022/09/01 12:01:37;;;;;;;6.30;2.60;;;;;;;;;;7376653;19;20602;-80
2022/09/01 12:04:21;;;;;;;5.93;2.95;;;;;;;;;;7362405;19;20859;-80
2022/09/01 12:06:53;;;;;;;7.38;3.15;;;;;;;;;;7314927;19;21248;-81
2022/09/01 12:09:19;;;;;;;6.13;2.60;;;;;;;;;;7357906;19;20014;-80
2022/09/01 12:11:44;;;;;;;6.32;2.83;;;;;;;;;;7306701;19;20025;-80
2022/09/01 12:14:10;;;;;;;8.13;2.90;;;;;;;;;;7363107;19;20339;-80
2022/09/01 12:16:38;;;;;;;5.22;2.70;;;;;;;;;;7315760;19;20007;-82
2022/09/01 12:19:04;;;;;;;6.70;2.83;;;;;;;;;;7320025;19;20527;-79
2022/09/01 12:21:31;;;;;;;5.97;2.65;;;;;;;;;;7332782;19;21144;-79
2022/09/01 12:24:17;;;;;;;5.80;2.72;;;;;;;;;;7348949;19;20023;-79
2022/09/01 12:26:43;;;;;;;5.97;2.63;;;;;;;;;;7340197;19;20014;-76
2022/09/01 12:29:10;;;;;;;7.45;2.53;;;;;;;;;;7364319;19;20558;-78
2022/09/01 12:31:35;;;;;;;4.47;2.20;;;;;;;;;;7352751;19;20003;-78
2022/09/01 12:34:03;;;;;;;5.82;2.65;;;;;;;;;;7362743;19;20035;-78
2022/09/01 12:36:28;;;;;;;5.50;2.55;;;;;;;;;;7355618;19;20042;-79
2022/09/01 12:39:13;;;;;;;4.82;2.40;;;;;;;;;;7348736;19;20010;-77
2022/09/01 12:41:39;;;;;;;6.53;2.42;;;;;;;;;;7371793;19;20011;-77
2022/09/01 12:44:23;;;;;;;5.07;2.33;;;;;;;;;;7370075;19;20009;-80
2022/09/01 12:46:48;;;;;;;5.82;2.70;;;;;;;;;;7359566;19;20483;-77
2022/09/01 12:49:36;;;;;;;5.23;2.87;;;;;;;;;;7373878;19;20061;-79
2022/09/01 12:52:11;;;;;;;6.50;2.60;;;;;;;;;;7378382;19;20010;-78
2022/09/01 12:54:36;;;;;;;6.90;3.15;;;;;;;;;;7376738;19;20007;-79
2022/09/01 12:57:02;;;;;;;5.05;2.60;;;;;;;;;;7378344;19;20031;-79
2022/09/01 12:59:27;;;;;;;6.30;2.80;;;;;;;;;;7379509;19;20031;-78
2022/09/01 13:01:52;;;;;;;6.73;2.77;;;;;;;;;;7377457;19;20014;-76
2022/09/01 13:04:21;;;;;;;5.00;2.70;;;;;;;;;;7382054;19;20010;-78
2022/09/01 13:06:46;;;;;;;5.03;2.75;;;;;;;;;;7368013;19;20358;-77
2022/09/01 13:09:12;;;;;;;5.47;2.50;;;;;;;;;;7378076;19;20011;-79
2022/09/01 13:11:37;;;;;;;4.97;2.50;;;;;;;;;;7378258;19;20042;-77
2022/09/01 13:14:02;;;;;;;7.45;2.67;;;;;;;;;;7378153;19;20027;-79
2022/09/01 13:16:27;;;;;;;8.13;3.05;;;;;;;;;;7372636;19;20003;-77
2022/09/01 13:18:53;;;;;;;5.78;2.38;;;;;;;;;;7374157;19;20026;-78
2022/09/01 13:21:18;;;;;;;6.30;2.73;;;;;;;;;;7382645;19;20011;-78
2022/09/01 13:23:43;;;;;;;5.67;2.90;;;;;;;;;;7367772;19;20073;-78
2022/09/01 13:26:10;;;;;;;4.47;2.33;;;;;;;;;;7368633;19;20010;-80
2022/09/01 13:28:35;;;;;;;6.00;2.60;;;;;;;;;;7382302;19;20014;-79
2022/09/01 13:31:04;;;;;;;6.22;2.63;;;;;;;;;;7380822;19;20022;-77
2022/09/01 13:33:30;;;;;;;6.63;2.70;;;;;;;;;;7376877;19;20002;-78
2022/09/01 13:35:55;;;;;;;5.10;2.83;;;;;;;;;;7379837;19;20006;-76
2022/09/01 13:38:21;;;;;;;6.97;2.97;;;;;;;;;;7380419;19;20070;-79
2022/09/01 13:40:47;;;;;;;8.00;2.73;;;;;;;;;;7379979;19;20546;-77
2022/09/01 13:43:13;;;;;;;4.47;2.13;;;;;;;;;;7368117;19;20498;-78
2022/09/01 13:45:39;;;;;;;5.07;2.38;;;;;;;;;;7376594;19;20023;-78
2022/09/01 13:48:04;;;;;;;8.82;3.00;;;;;;;;;;7372664;19;20011;-76
2022/09/01 13:50:30;;;;;;;7.47;2.80;;;;;;;;;;7378576;19;20077;-78
2022/09/01 13:52:55;;;;;;;5.07;2.40;;;;;;;;;;7377994;19;20271;-77
2022/09/01 13:55:23;;;;;;;5.32;2.38;;;;;;;;;;7376990;19;20267;-78
2022/09/01 13:57:48;;;;;;;6.65;2.30;;;;;;;;;;7369290;19;20049;-78
2022/09/01 14:00:16;;;;;;;6.10;2.77;;;;;;;;;;7375114;19;20472;-78
2022/09/01 14:02:47;;;;;;;5.28;2.65;;;;;;;;;;7348312;19;20011;-78
2022/09/01 14:05:13;;;;;;;7.38;2.70;;;;;;;;;;7364445;19;20472;-78
2022/09/01 14:07:38;;;;;;;5.00;2.53;;;;;;;;;;7365226;19;20090;-78
2022/09/01 14:10:03;;;;;;;8.03;2.83;;;;;;;;;;7377685;19;19998;-78
2022/09/01 14:12:29;;;;;;;5.07;2.38;;;;;;;;;;7381762;19;20027;-79
2022/09/01 14:14:54;;;;;;;7.57;2.63;;;;;;;;;;7382001;19;20362;-78
2022/09/01 14:17:19;;;;;;;6.90;2.80;;;;;;;;;;7380725;19;20576;-78
2022/09/01 14:19:49;;;;;;;6.47;2.37;;;;;;;;;;7376183;19;20017;-78
2022/09/01 14:22:14;;;;;;;5.53;2.50;;;;;;;;;;7365706;19;20030;-78
2022/09/01 14:24:39;;;;;;;5.03;2.30;;;;;;;;;;7374202;19;20108;-78
2022/09/01 14:27:04;;;;;;;6.50;2.58;;;;;;;;;;7373042;19;20267;-78
2022/09/01 14:29:29;;;;;;;4.53;2.30;;;;;;;;;;7367595;19;20006;-79
2022/09/01 14:31:55;;;;;;;7.40;2.40;;;;;;;;;;7368882;19;20912;-77
2022/09/01 14:34:21;;;;;;;6.85;2.60;;;;;;;;;;7378010;19;20042;-77
2022/09/01 14:36:46;;;;;;;6.65;2.75;;;;;;;;;;7364370;19;20917;-80
2022/09/01 14:39:11;;;;;;;4.78;2.38;;;;;;;;;;7359588;19;20010;-79
2022/09/01 14:41:36;;;;;;;6.83;2.70;;;;;;;;;;7358618;19;20014;-76
2022/09/01 14:44:02;;;;;;;7.00;2.60;;;;;;;;;;7375270;19;20255;-77
2022/09/01 14:46:29;;;;;;;6.05;2.70;;;;;;;;;;7369080;19;20015;-76
2022/09/01 14:48:54;;;;;;;4.93;2.40;;;;;;;;;;7369572;19;20019;-79
2022/09/01 14:51:24;;;;;;;4.60;2.47;;;;;;;;;;7376793;19;20002;-76